ATL weather

Hartsfield Jackson Atlanta International Airport
Atlanta, Georgia, United States

Public forecast

Using degrees Fahrenheit for public forecast. Weather courtesy of forecast.io.

Current aviation weather report (METAR) for Hartsfield Jackson Atlanta International Airport

Retrieved 2020/04/03 19:52 UTC (17 minutes ago):

KATL 031952Z 31008KT 10SM SCT150 SCT200 24/M01 A2997 RMK AO2 SLP144 VIRGA SW-NW ACC NW T02441011

Aviation forecast (TAF) for Hartsfield Jackson Atlanta International Airport

Retrieved 2020/04/03 18:22 UTC (2 hours ago):

TAF KATL 031720Z 0318/0424 30006KT P6SM FEW250 FM041500 04006KT P6SM SCT120 BKN250